Map

Track Data

SID SEASON NUMBER BASIN SUBBASIN NAME ISO_TIME NATURE LAT LON WMO_WIND WMO_PRES WMO_AGENCY TRACK_TYPE DIST2LAND LANDFALL IFLAG USA_AGENCY USA_ATCF_ID USA_LAT USA_LON USA_RECORD USA_STATUS USA_WIND USA_PRES USA_SSHS USA_R34_NE USA_R34_SE USA_R34_SW USA_R34_NW USA_R50_NE USA_R50_SE USA_R50_SW USA_R50_NW USA_R64_NE USA_R64_SE USA_R64_SW USA_R64_NW USA_POCI USA_ROCI USA_RMW USA_EYE TOKYO_LAT TOKYO_LON TOKYO_GRADE TOKYO_WIND TOKYO_PRES TOKYO_R50_DIR TOKYO_R50_LONG TOKYO_R50_SHORT TOKYO_R30_DIR TOKYO_R30_LONG TOKYO_R30_SHORT TOKYO_LAND CMA_LAT CMA_LON CMA_CAT CMA_WIND CMA_PRES HKO_LAT HKO_LON HKO_CAT HKO_WIND HKO_PRES NEWDELHI_LAT NEWDELHI_LON NEWDELHI_GRADE NEWDELHI_WIND NEWDELHI_PRES NEWDELHI_CI NEWDELHI_DP NEWDELHI_POCI REUNION_LAT REUNION_LON REUNION_TYPE REUNION_WIND REUNION_PRES REUNION_TNUM REUNION_CI REUNION_RMW REUNION_R34_NE REUNION_R34_SE REUNION_R34_SW REUNION_R34_NW REUNION_R50_NE REUNION_R50_SE REUNION_R50_SW REUNION_R50_NW REUNION_R64_NE REUNION_R64_SE REUNION_R64_SW REUNION_R64_NW BOM_LAT BOM_LON BOM_TYPE BOM_WIND BOM_PRES BOM_TNUM BOM_CI BOM_RMW BOM_R34_NE BOM_R34_SE BOM_R34_SW BOM_R34_NW BOM_R50_NE BOM_R50_SE BOM_R50_SW BOM_R50_NW BOM_R64_NE BOM_R64_SE BOM_R64_SW BOM_R64_NW BOM_ROCI BOM_POCI BOM_EYE BOM_POS_METHOD BOM_PRES_METHOD NADI_LAT NADI_LON NADI_CAT NADI_WIND NADI_PRES WELLINGTON_LAT WELLINGTON_LON WELLINGTON_WIND WELLINGTON_PRES DS824_LAT DS824_LON DS824_STAGE DS824_WIND DS824_PRES TD9636_LAT TD9636_LON TD9636_STAGE TD9636_WIND TD9636_PRES TD9635_LAT TD9635_LON TD9635_WIND TD9635_PRES TD9635_ROCI NEUMANN_LAT NEUMANN_LON NEUMANN_CLASS NEUMANN_WIND NEUMANN_PRES MLC_LAT MLC_LON MLC_CLASS MLC_WIND MLC_PRES USA_GUST BOM_GUST BOM_GUST_PER REUNION_GUST REUNION_GUST_PER USA_SEAHGT USA_SEARAD_NE USA_SEARAD_SE USA_SEARAD_SW USA_SEARAD_NW STORM_SPEED STORM_DIR
1924192N15125 1924 16 WP MM NOT_NAMED 1924-07-09 22:00:00 NR 15.4000 125.100 main 178 178 __________O___ -1 15.4000 125.100 7 13 13
1924192N15125 1924 16 WP MM NOT_NAMED 1924-07-10 00:00:00 NR 15.8022 125.202 main 223 223 __________P___ -1 15.8022 125.202 7 12 14
1924192N15125 1924 16 WP MM NOT_NAMED 1924-07-10 03:00:00 NR 16.4048 125.354 main 293 293 __________P___ -1 16.4048 125.354 7 12 14
1924192N15125 1924 16 WP MM NOT_NAMED 1924-07-10 06:00:00 NR 17.0051 125.504 main 319 319 __________P___ -1 17.0051 125.504 7 12 13
1924192N15125 1924 16 WP MM NOT_NAMED 1924-07-10 09:00:00 NR 17.6020 125.652 main 346 346 __________P___ -1 17.6020 125.652 7 12 13
1924192N15125 1924 16 WP MM NOT_NAMED 1924-07-10 10:00:00 NR 17.8000 125.700 main 351 351 __________O___ -1 17.8000 125.700 7 12 13
1924192N15125 1924 16 WP MM NOT_NAMED 1924-07-10 12:00:00 NR 18.1947 125.795 main 369 369 __________P___ -1 18.1947 125.795 7 12 13
1924192N15125 1924 16 WP MM NOT_NAMED 1924-07-10 15:00:00 NR 18.7867 125.938 main 382 382 __________P___ -1 18.7867 125.938 7 12 13
1924192N15125 1924 16 WP MM NOT_NAMED 1924-07-10 18:00:00 NR 19.3841 126.085 main 415 415 __________P___ -1 19.3841 126.085 7 12 13
1924192N15125 1924 16 WP MM NOT_NAMED 1924-07-10 21:00:00 NR 19.9933 126.244 main 446 456 __________P___ -1 19.9933 126.244 7 13 14
1924192N15125 1924 16 WP MM NOT_NAMED 1924-07-10 22:00:00 NR 20.2000 126.300 main 465 465 __________O___ -1 20.2000 126.300 7 13 15
1924192N15125 1924 16 WP MM NOT_NAMED 1924-07-11 00:00:00 NR 20.6141 126.430 main 495 495 __________P___ -1 20.6141 126.430 7 13 17
1924192N15125 1924 16 WP MM NOT_NAMED 1924-07-11 03:00:00 NR 21.2478 126.637 main 548 554 __________P___ -1 21.2478 126.637 7 13 17
1924192N15125 1924 16 WP MM NOT_NAMED 1924-07-11 06:00:00 NR 21.8990 126.846 main 570 561 __________P___ -1 21.8990 126.846 7 14 16
1924192N15125 1924 16 WP MM NOT_NAMED 1924-07-11 09:00:00 NR 22.5709 127.041 main 561 562 __________P___ -1 22.5709 127.041 7 14 15
1924192N15125 1924 16 WP MM NOT_NAMED 1924-07-11 10:00:00 NR 22.8000 127.100 main 562 554 __________O___ -1 22.8000 127.100 7 15 14
1924192N15125 1924 16 WP MM NOT_NAMED 1924-07-11 12:00:00 NR 23.2766 127.236 main 554 554 __________P___ -1 23.2766 127.236 7 15 14
1924192N15125 1924 16 WP MM NOT_NAMED 1924-07-11 15:00:00 NR 24.0107 127.423 main 557 554 __________P___ -1 24.0107 127.423 7 15 11
1924192N15125 1924 16 WP MM NOT_NAMED 1924-07-11 18:00:00 NR 24.7484 127.558 main 565 563 __________P___ -1 24.7484 127.558 7 15 7
1924192N15125 1924 16 WP MM NOT_NAMED 1924-07-11 21:00:00 NR 25.4680 127.608 main 565 565 __________P___ -1 25.4680 127.608 7 14 2
1924192N15125 1924 16 WP MM NOT_NAMED 1924-07-11 22:00:00 NR 25.7000 127.600 main 567 567 __________O___ -1 25.7000 127.600 3 14 356
1924192N15125 1924 16 WP MM NOT_NAMED 1924-07-12 00:00:00 NR 26.1597 127.575 main 576 556 __________P___ -1 26.1597 127.575 3 14 353
1924192N15125 1924 16 WP MM NOT_NAMED 1924-07-12 03:00:00 NR 26.8247 127.449 main 561 514 __________P___ -1 26.8247 127.449 3 13 346
1924192N15125 1924 16 WP MM NOT_NAMED 1924-07-12 06:00:00 NR 27.4497 127.210 main 514 478 __________P___ -1 27.4497 127.210 3 13 336
1924192N15125 1924 16 WP MM NOT_NAMED 1924-07-12 09:00:00 NR 28.0227 126.849 main 485 471 __________P___ -1 28.0227 126.849 3 13 329
1924192N15125 1924 16 WP MM NOT_NAMED 1924-07-12 10:00:00 NR 28.2000 126.700 main 471 435 __________O___ -1 28.2000 126.700 4 13 320
1924192N15125 1924 16 WP MM NOT_NAMED 1924-07-12 12:00:00 NR 28.5326 126.360 main 435 369 __________P___ -1 28.5326 126.360 4 14 313
1924192N15125 1924 16 WP MM NOT_NAMED 1924-07-12 15:00:00 NR 28.9843 125.759 main 369 301 __________P___ -1 28.9843 125.759 4 14 308
1924192N15125 1924 16 WP MM NOT_NAMED 1924-07-12 18:00:00 NR 29.3932 125.078 main 301 231 __________P___ -1 29.3932 125.078 4 15 303
1924192N15125 1924 16 WP MM NOT_NAMED 1924-07-12 21:00:00 NR 29.7756 124.348 main 231 212 __________P___ -1 29.7756 124.348 4 15 301
1924192N15125 1924 16 WP MM NOT_NAMED 1924-07-12 22:00:00 NR 29.9000 124.100 main 212 __________O___ -1 29.9000 124.100 7 15 300

Digital Typhoon Data and Search

About IBTrACS Database

This database is a web-friendly format of International Best Track Archive for Climate Stewardship (IBTrACS), a global best track data archive curated by NOAA dating back to 1842.

Updated: 2021-11-26